Time;durP1;ratioP1;P1;durP2;ratioP2;P2;SDS_P1;SDS_P2;PMS_P1;PMS_P2;Temp;Humidity;BMP_temperature;BMP_pressure;BME280_temperature;BME280_humidity;BME280_pressure;Samples;Min_cycle;Max_cycle;Signal;HPM_P1;HPM_P2
2021/07/10 00:00:26;;;;;;;9.60;5.80;;;13.70;99.90;;;;;;5017821;28;20422;-54
2021/07/10 00:02:51;;;;;;;8.40;5.30;;;13.70;99.90;;;;;;5020849;28;20457;-57
2021/07/10 00:05:20;;;;;;;8.70;6.10;;;13.70;99.90;;;;;;5012659;28;20200;-54
2021/07/10 00:07:46;;;;;;;8.50;5.73;;;13.70;99.90;;;;;;5020716;28;20265;-54
2021/07/10 00:10:15;;;;;;;8.13;5.70;;;13.70;99.90;;;;;;5019923;28;20483;-56
2021/07/10 00:12:44;;;;;;;5.27;4.77;;;13.60;99.90;;;;;;5018107;28;20428;-56
2021/07/10 00:15:13;;;;;;;8.60;5.90;;;13.60;99.90;;;;;;5018329;28;20549;-55
2021/07/10 00:17:39;;;;;;;6.67;5.40;;;13.60;99.90;;;;;;5022243;28;20891;-53
2021/07/10 00:20:08;;;;;;;8.50;5.60;;;13.60;99.90;;;;;;5020363;28;20422;-56
2021/07/10 00:22:34;;;;;;;6.47;5.60;;;13.50;99.90;;;;;;5017573;28;20273;-56
2021/07/10 00:25:04;;;;;;;5.87;5.27;;;13.50;99.90;;;;;;5014193;28;21030;-55
2021/07/10 00:27:29;;;;;;;7.80;6.00;;;13.50;99.90;;;;;;5016045;28;20208;-56
2021/07/10 00:29:55;;;;;;;7.57;5.77;;;13.40;99.90;;;;;;5018752;28;20431;-55
2021/07/10 00:32:20;;;;;;;9.33;5.20;;;13.40;99.90;;;;;;5023292;28;20677;-55
2021/07/10 00:34:46;;;;;;;7.40;5.63;;;13.40;99.90;;;;;;5020961;28;20187;-56
2021/07/10 00:37:14;;;;;;;5.40;4.90;;;13.40;99.90;;;;;;5045614;22;20216;-62
2021/07/10 00:39:40;;;;;;;8.60;5.50;;;13.30;99.90;;;;;;5023561;28;20191;-58
2021/07/10 00:42:08;;;;;;;7.53;5.93;;;13.30;99.90;;;;;;5027194;28;20501;-58
2021/07/10 00:44:34;;;;;;;7.10;5.57;;;13.30;99.90;;;;;;5026096;28;20199;-59
2021/07/10 00:47:00;;;;;;;8.40;5.70;;;13.30;99.90;;;;;;5017427;28;20800;-57
2021/07/10 00:49:28;;;;;;;7.57;6.13;;;13.30;99.90;;;;;;5017939;28;20180;-58
2021/07/10 00:51:54;;;;;;;6.83;5.77;;;13.30;99.90;;;;;;5017199;28;20173;-57
2021/07/10 00:54:19;;;;;;;13.67;6.67;;;13.20;99.90;;;;;;5018674;28;20438;-59
2021/07/10 00:56:47;;;;;;;6.30;5.70;;;13.20;99.90;;;;;;5021194;28;20192;-57
2021/07/10 00:59:16;;;;;;;8.87;5.77;;;13.20;99.90;;;;;;5019970;28;20200;-59
2021/07/10 01:01:43;;;;;;;10.50;5.90;;;13.10;99.90;;;;;;5022834;28;20435;-58
2021/07/10 01:04:11;;;;;;;7.70;6.07;;;13.10;99.90;;;;;;5023298;28;21183;-57
2021/07/10 01:06:40;;;;;;;11.27;5.40;;;13.10;99.90;;;;;;5018743;28;20429;-59
2021/07/10 01:09:08;;;;;;;9.30;5.93;;;13.00;99.90;;;;;;5016023;28;20518;-58
2021/07/10 01:11:34;;;;;;;8.10;6.10;;;13.00;99.90;;;;;;5018226;28;20567;-58
2021/07/10 01:14:04;;;;;;;7.20;6.47;;;13.00;99.90;;;;;;5018395;28;20480;-58
2021/07/10 01:16:30;;;;;;;11.43;5.60;;;13.00;99.90;;;;;;5020257;28;20455;-57
2021/07/10 01:18:55;;;;;;;10.53;6.53;;;12.90;99.90;;;;;;5023104;28;20485;-58
2021/07/10 01:21:21;;;;;;;8.37;6.20;;;12.90;99.90;;;;;;5014604;28;20181;-58
2021/07/10 01:23:48;;;;;;;8.17;6.93;;;12.90;99.90;;;;;;5016659;28;20198;-58
2021/07/10 01:26:14;;;;;;;16.33;5.90;;;12.90;99.90;;;;;;5021100;28;20170;-58
2021/07/10 01:28:40;;;;;;;9.57;6.77;;;12.80;99.90;;;;;;5023461;28;20949;-58
2021/07/10 01:31:06;;;;;;;8.13;6.43;;;12.80;99.90;;;;;;5020981;28;20410;-57
2021/07/10 01:33:35;;;;;;;6.93;6.23;;;12.80;99.90;;;;;;5013636;28;20176;-57
2021/07/10 01:36:03;;;;;;;6.63;5.40;;;12.80;99.90;;;;;;5018064;28;20447;-57
2021/07/10 01:38:29;;;;;;;9.37;6.30;;;12.80;99.90;;;;;;5022322;28;20448;-57
2021/07/10 01:40:55;;;;;;;9.53;5.80;;;12.70;99.90;;;;;;5019944;28;20921;-59
2021/07/10 01:43:20;;;;;;;7.20;5.77;;;12.80;99.90;;;;;;5017916;28;20801;-57
2021/07/10 01:45:46;;;;;;;9.67;6.43;;;12.70;99.90;;;;;;5019484;28;20168;-58
2021/07/10 01:48:13;;;;;;;8.07;6.27;;;12.70;99.90;;;;;;5022469;28;20220;-59
2021/07/10 01:50:43;;;;;;;11.53;6.50;;;12.70;99.90;;;;;;5018512;28;20177;-58
2021/07/10 01:53:15;;;;;;;7.40;6.03;;;12.70;99.90;;;;;;5017311;28;21019;-58
2021/07/10 01:55:41;;;;;;;10.50;6.30;;;12.70;99.90;;;;;;5021888;28;20469;-59
2021/07/10 01:58:07;;;;;;;9.90;6.83;;;12.60;99.90;;;;;;5019889;28;20454;-59
2021/07/10 02:00:51;;;;;;;8.37;6.50;;;12.60;99.90;;;;;;5025272;28;20464;-59
2021/07/10 02:03:17;;;;;;;11.20;6.10;;;12.60;99.90;;;;;;5028891;28;20469;-56
2021/07/10 02:05:45;;;;;;;7.60;6.80;;;12.60;99.90;;;;;;5029622;28;20410;-56
2021/07/10 02:08:11;;;;;;;10.37;6.33;;;12.50;99.90;;;;;;5025922;28;20450;-56
2021/07/10 02:10:39;;;;;;;11.60;7.07;;;12.50;99.90;;;;;;5026626;28;20561;-57
2021/07/10 02:13:07;;;;;;;15.60;6.57;;;12.50;99.90;;;;;;5019810;28;20184;-58
2021/07/10 02:15:32;;;;;;;16.20;6.70;;;12.40;99.90;;;;;;5022377;28;20435;-58
2021/07/10 02:18:01;;;;;;;26.93;6.53;;;12.40;99.90;;;;;;5020687;28;20446;-57
2021/07/10 02:20:27;;;;;;;7.80;6.00;;;12.30;99.90;;;;;;5009491;28;20184;-56
2021/07/10 02:22:54;;;;;;;18.43;7.40;;;12.30;99.90;;;;;;5021240;28;21180;-55
2021/07/10 02:25:21;;;;;;;16.33;7.17;;;12.20;99.90;;;;;;5027352;28;20198;-58
2021/07/10 02:27:47;;;;;;;8.97;7.40;;;12.30;99.90;;;;;;5026337;28;20442;-57
2021/07/10 02:30:19;;;;;;;14.63;7.10;;;12.20;99.90;;;;;;5025871;28;20425;-55
2021/07/10 02:32:46;;;;;;;14.00;6.47;;;12.30;99.90;;;;;;5029162;28;20472;-57
2021/07/10 02:35:14;;;;;;;16.03;6.90;;;12.30;99.90;;;;;;5029046;28;20442;-56
2021/07/10 02:37:40;;;;;;;7.37;6.60;;;12.30;99.90;;;;;;5031320;28;20454;-58
2021/07/10 02:40:08;;;;;;;16.63;7.30;;;12.30;99.90;;;;;;5027710;28;20836;-56
2021/07/10 02:42:35;;;;;;;38.57;7.63;;;12.30;99.90;;;;;;5032383;28;20423;-57
2021/07/10 02:45:04;;;;;;;10.40;6.13;;;12.30;99.90;;;;;;5031582;28;20976;-57
2021/07/10 02:47:30;;;;;;;9.47;6.97;;;12.30;99.90;;;;;;5024130;28;20458;-57
2021/07/10 02:49:58;;;;;;;13.50;7.33;;;12.30;99.90;;;;;;5031871;28;20422;-57
2021/07/10 02:52:26;;;;;;;18.43;7.20;;;12.30;99.90;;;;;;5032013;28;20648;-57
2021/07/10 02:54:52;;;;;;;21.20;8.03;;;12.30;99.90;;;;;;5029971;28;20989;-56
2021/07/10 02:57:18;;;;;;;23.80;7.07;;;12.30;99.90;;;;;;5024140;28;20450;-57
2021/07/10 02:59:47;;;;;;;21.43;6.77;;;12.30;99.90;;;;;;5032023;28;20721;-57
2021/07/10 03:02:12;;;;;;;18.03;8.03;;;12.30;99.90;;;;;;5028056;28;20411;-57
2021/07/10 03:04:38;;;;;;;58.20;9.10;;;12.30;99.90;;;;;;5014466;28;20477;-57
2021/07/10 03:07:07;;;;;;;14.13;7.70;;;12.30;99.90;;;;;;5032795;28;20176;-58
2021/07/10 03:09:33;;;;;;;33.53;8.10;;;12.20;99.90;;;;;;5031067;28;20830;-58
2021/07/10 03:11:58;;;;;;;23.23;9.87;;;12.20;99.90;;;;;;5027258;28;20476;-57
2021/07/10 03:14:27;;;;;;;19.97;8.50;;;12.20;99.90;;;;;;5025440;28;20219;-56
2021/07/10 03:16:52;;;;;;;27.23;8.23;;;12.20;99.90;;;;;;5032718;28;20164;-57
2021/07/10 03:19:18;;;;;;;35.07;8.50;;;12.20;99.90;;;;;;5032951;28;20424;-57
2021/07/10 03:21:45;;;;;;;40.07;8.97;;;12.20;99.90;;;;;;5030336;28;20183;-58
2021/07/10 03:24:10;;;;;;;21.43;8.17;;;12.10;99.90;;;;;;5015665;28;20200;-57
2021/07/10 03:26:36;;;;;;;41.33;9.00;;;12.10;99.90;;;;;;5032583;28;20427;-57
2021/07/10 03:29:02;;;;;;;28.00;7.83;;;12.10;99.90;;;;;;5032675;28;20191;-55
2021/07/10 03:31:27;;;;;;;24.57;9.87;;;12.10;99.90;;;;;;5030163;28;20183;-56
2021/07/10 03:33:53;;;;;;;39.87;9.23;;;12.10;99.90;;;;;;5032271;28;20175;-56
2021/07/10 03:36:24;;;;;;;32.37;9.10;;;12.00;99.90;;;;;;5032618;28;20172;-58
2021/07/10 03:38:49;;;;;;;15.50;7.93;;;12.00;99.90;;;;;;5023021;28;20220;-56
2021/07/10 03:41:15;;;;;;;28.00;9.83;;;12.00;99.90;;;;;;5019609;28;20506;-56
2021/07/10 03:43:41;;;;;;;34.13;10.40;;;12.00;99.90;;;;;;5031871;28;20200;-56
2021/07/10 03:46:07;;;;;;;30.33;8.60;;;12.00;99.90;;;;;;5024034;28;20172;-58
2021/07/10 03:48:33;;;;;;;38.33;8.60;;;12.00;99.90;;;;;;5031575;28;20445;-55
2021/07/10 03:51:01;;;;;;;69.77;10.93;;;12.00;99.90;;;;;;5025249;28;20194;-56
2021/07/10 03:53:27;;;;;;;35.80;9.17;;;12.00;99.90;;;;;;5025767;28;20562;-57
2021/07/10 03:55:56;;;;;;;41.87;9.10;;;12.00;99.90;;;;;;5015925;28;20518;-55
2021/07/10 03:58:22;;;;;;;36.73;8.83;;;12.00;99.90;;;;;;5022208;28;20209;-58
2021/07/10 04:00:47;;;;;;;21.67;9.13;;;12.00;99.90;;;;;;5028296;28;20426;-57
2021/07/10 04:03:13;;;;;;;33.67;10.10;;;12.00;99.90;;;;;;5022952;28;20661;-56
2021/07/10 04:05:38;;;;;;;23.70;8.57;;;12.00;99.90;;;;;;5025039;28;20176;-56
2021/07/10 04:08:04;;;;;;;17.50;10.00;;;12.00;99.90;;;;;;5029668;28;20196;-58
2021/07/10 04:10:30;;;;;;;23.07;9.60;;;12.00;99.90;;;;;;5020032;28;20176;-57
2021/07/10 04:12:56;;;;;;;50.93;11.37;;;12.00;99.90;;;;;;5011883;28;20180;-56
2021/07/10 04:15:21;;;;;;;31.00;9.33;;;12.00;99.90;;;;;;5024897;28;20672;-56
2021/07/10 04:17:48;;;;;;;25.63;8.80;;;12.00;99.90;;;;;;5027007;28;20286;-57
2021/07/10 04:20:16;;;;;;;18.50;8.97;;;12.00;99.90;;;;;;5027300;28;20213;-56
2021/07/10 04:22:42;;;;;;;21.40;9.30;;;12.00;99.90;;;;;;5022763;28;20426;-56
2021/07/10 04:25:11;;;;;;;24.23;8.70;;;12.00;99.90;;;;;;5031284;28;20425;-55
2021/07/10 04:27:38;;;;;;;26.57;9.17;;;12.10;99.90;;;;;;5031536;28;20506;-57
2021/07/10 04:30:05;;;;;;;18.00;8.67;;;12.10;99.90;;;;;;5012545;28;20438;-57
2021/07/10 04:32:31;;;;;;;37.80;9.00;;;12.10;99.90;;;;;;5019728;28;20435;-57
2021/07/10 04:34:57;;;;;;;17.93;8.83;;;12.10;99.90;;;;;;5029768;28;20411;-58
2021/07/10 04:37:23;;;;;;;42.53;11.50;;;12.10;99.90;;;;;;5030080;28;20219;-56
2021/07/10 04:39:48;;;;;;;31.23;9.50;;;12.10;99.90;;;;;;5024664;28;20179;-55
2021/07/10 04:42:14;;;;;;;12.93;8.93;;;12.10;99.90;;;;;;5018759;28;20165;-57
2021/07/10 04:44:40;;;;;;;47.23;10.00;;;12.10;99.90;;;;;;5024813;28;20203;-57
2021/07/10 04:47:06;;;;;;;56.87;8.40;;;12.10;99.90;;;;;;5026405;28;20223;-58
2021/07/10 04:49:31;;;;;;;31.23;8.40;;;12.20;99.90;;;;;;5013801;28;20701;-58
2021/07/10 04:51:57;;;;;;;31.40;7.80;;;12.10;99.90;;;;;;5028041;28;20616;-57
2021/07/10 04:54:23;;;;;;;16.03;9.20;;;12.10;99.90;;;;;;5029597;28;20259;-56
2021/07/10 04:56:48;;;;;;;50.37;10.43;;;12.10;99.90;;;;;;5027603;28;20183;-57
2021/07/10 04:59:14;;;;;;;26.83;10.13;;;12.10;99.90;;;;;;5029262;28;20632;-57
2021/07/10 05:01:39;;;;;;;27.50;11.03;;;12.10;99.90;;;;;;5022887;28;20196;-57
2021/07/10 05:04:05;;;;;;;47.67;12.60;;;12.20;99.90;;;;;;5011114;28;20192;-57
2021/07/10 05:06:31;;;;;;;22.83;11.13;;;12.30;99.90;;;;;;5023460;28;20171;-57
2021/07/10 05:08:57;;;;;;;30.93;11.70;;;12.30;99.90;;;;;;5027593;28;20196;-57
2021/07/10 05:11:22;;;;;;;23.00;12.03;;;12.40;99.90;;;;;;5030413;28;20254;-58
2021/07/10 05:13:48;;;;;;;23.43;9.67;;;12.40;99.90;;;;;;5030268;28;20174;-56
2021/07/10 05:16:13;;;;;;;31.50;12.23;;;12.50;99.90;;;;;;5025741;28;20183;-57
2021/07/10 05:18:39;;;;;;;22.70;11.80;;;12.50;99.90;;;;;;5022095;28;20204;-57
2021/07/10 05:21:05;;;;;;;36.47;12.40;;;12.50;99.90;;;;;;5019643;28;20183;-58
2021/07/10 05:23:31;;;;;;;23.00;12.20;;;12.60;99.90;;;;;;5035204;28;20211;-58
2021/07/10 05:25:57;;;;;;;23.33;10.70;;;12.60;99.90;;;;;;5031986;28;20176;-58
2021/07/10 05:28:22;;;;;;;23.13;11.40;;;12.60;99.90;;;;;;5031329;28;20434;-57
2021/07/10 05:30:49;;;;;;;18.20;11.30;;;12.60;99.90;;;;;;5033187;28;20164;-57
2021/07/10 05:33:16;;;;;;;22.50;12.03;;;12.60;99.90;;;;;;5031032;28;20207;-57
2021/07/10 05:35:45;;;;;;;24.87;12.90;;;12.60;99.90;;;;;;5015139;28;20407;-57
2021/07/10 05:38:11;;;;;;;25.93;13.00;;;12.70;99.90;;;;;;5017494;28;20535;-58
2021/07/10 05:40:37;;;;;;;22.57;12.07;;;12.60;99.90;;;;;;5024997;28;20455;-56
2021/07/10 05:43:03;;;;;;;20.80;10.77;;;12.60;99.90;;;;;;5020380;28;20533;-58
2021/07/10 05:45:28;;;;;;;40.83;15.13;;;12.60;99.90;;;;;;5029672;28;20167;-57
2021/07/10 05:47:54;;;;;;;32.20;15.40;;;12.60;99.90;;;;;;5028953;28;20668;-57
2021/07/10 05:50:19;;;;;;;43.57;16.47;;;12.70;99.90;;;;;;5026827;28;20542;-56
2021/07/10 05:52:45;;;;;;;57.40;26.57;;;12.70;99.90;;;;;;5019820;28;20511;-57
2021/07/10 05:55:11;;;;;;;83.67;23.20;;;12.80;99.90;;;;;;5029005;28;20674;-56
2021/07/10 05:57:36;;;;;;;53.80;22.83;;;12.90;99.90;;;;;;5029418;28;20707;-57
2021/07/10 06:00:06;;;;;;;37.73;18.53;;;12.90;99.90;;;;;;5024838;28;20682;-57
2021/07/10 06:02:32;;;;;;;27.50;13.90;;;13.00;99.90;;;;;;5019261;28;20163;-57
2021/07/10 06:04:58;;;;;;;29.03;15.40;;;13.00;99.90;;;;;;5022082;28;20413;-57
2021/07/10 06:07:23;;;;;;;77.50;17.40;;;13.00;99.90;;;;;;5020857;28;20223;-58
2021/07/10 06:09:49;;;;;;;25.73;14.63;;;13.10;99.90;;;;;;5019382;28;20172;-57
2021/07/10 06:12:15;;;;;;;24.50;14.33;;;13.10;99.90;;;;;;5022511;28;20202;-58
2021/07/10 06:14:40;;;;;;;42.30;17.60;;;13.10;99.90;;;;;;5022083;28;20180;-57
2021/07/10 06:17:06;;;;;;;26.30;15.87;;;13.20;99.90;;;;;;5019394;28;20180;-57
2021/07/10 06:19:32;;;;;;;29.83;16.20;;;13.30;99.90;;;;;;5022589;28;20179;-56
2021/07/10 06:21:59;;;;;;;33.00;18.10;;;13.30;99.90;;;;;;5021153;28;20421;-56
2021/07/10 06:24:26;;;;;;;30.33;16.93;;;13.40;99.90;;;;;;5013705;28;20676;-57
2021/07/10 06:26:53;;;;;;;44.77;21.60;;;13.50;99.90;;;;;;5016860;28;20430;-56
2021/07/10 06:29:19;;;;;;;50.77;23.17;;;13.60;99.90;;;;;;5022563;28;20438;-56
2021/07/10 06:31:45;;;;;;;49.83;24.57;;;13.70;99.90;;;;;;5019820;28;20530;-56
2021/07/10 06:34:10;;;;;;;48.63;24.40;;;13.90;99.90;;;;;;5019206;28;20261;-57
2021/07/10 06:36:37;;;;;;;38.83;21.03;;;14.00;99.90;;;;;;5019244;28;20176;-57
2021/07/10 06:39:05;;;;;;;29.57;16.87;;;14.00;99.90;;;;;;5016296;28;20764;-55
2021/07/10 06:41:30;;;;;;;32.23;18.10;;;14.10;99.90;;;;;;5017488;28;20422;-57
2021/07/10 06:43:57;;;;;;;69.20;37.07;;;14.20;99.90;;;;;;5019656;28;20449;-56
2021/07/10 06:46:23;;;;;;;40.83;25.33;;;14.30;99.90;;;;;;5018360;28;20414;-57
2021/07/10 06:48:48;;;;;;;24.43;16.50;;;14.50;99.90;;;;;;5018201;28;20513;-58
2021/07/10 06:51:16;;;;;;;20.03;12.30;;;14.60;99.90;;;;;;5019577;28;20251;-59
2021/07/10 06:53:42;;;;;;;17.40;13.30;;;14.80;99.90;;;;;;5021213;28;20183;-57
2021/07/10 06:56:08;;;;;;;17.60;13.60;;;14.80;99.90;;;;;;5021971;28;20434;-58
2021/07/10 06:58:34;;;;;;;22.47;13.20;;;14.90;99.90;;;;;;5019252;28;20544;-58
2021/07/10 07:01:00;;;;;;;19.43;12.63;;;14.90;99.90;;;;;;5018613;28;20176;-57
2021/07/10 07:03:26;;;;;;;22.33;13.20;;;15.00;99.90;;;;;;5018688;28;20204;-57
2021/07/10 07:05:51;;;;;;;18.63;13.00;;;15.20;99.90;;;;;;5021617;28;20173;-59
2021/07/10 07:08:17;;;;;;;13.43;10.57;;;15.40;99.90;;;;;;5013791;28;20228;-59
2021/07/10 07:10:43;;;;;;;12.60;10.10;;;15.60;99.90;;;;;;5018650;28;20255;-61
2021/07/10 07:13:09;;;;;;;16.23;10.60;;;15.70;99.90;;;;;;5018242;28;20821;-59
2021/07/10 07:15:34;;;;;;;15.67;8.90;;;15.80;99.90;;;;;;5021547;28;20418;-60
2021/07/10 07:18:00;;;;;;;16.10;9.17;;;16.00;99.90;;;;;;5014307;28;20208;-59
2021/07/10 07:20:26;;;;;;;15.53;11.20;;;16.10;99.90;;;;;;5016013;28;20243;-59
2021/07/10 07:22:53;;;;;;;14.73;11.53;;;16.20;99.90;;;;;;5022758;28;20576;-57
2021/07/10 07:25:21;;;;;;;27.33;13.73;;;16.30;99.90;;;;;;5024563;28;20473;-57
2021/07/10 07:27:51;;;;;;;25.07;15.20;;;16.50;99.90;;;;;;5023689;28;20446;-57
2021/07/10 07:30:18;;;;;;;20.87;13.40;;;16.60;99.90;;;;;;5020618;28;20968;-59
2021/07/10 07:32:44;;;;;;;16.73;13.30;;;16.80;99.90;;;;;;5019764;28;20442;-57
2021/07/10 07:35:11;;;;;;;22.73;12.73;;;17.00;99.90;;;;;;5021679;28;20513;-58
2021/07/10 07:37:37;;;;;;;19.00;10.73;;;17.20;99.90;;;;;;5021787;28;20467;-57
2021/07/10 07:40:08;;;;;;;21.43;9.73;;;17.30;99.90;;;;;;5022881;28;20509;-57
2021/07/10 07:42:34;;;;;;;17.47;11.33;;;17.40;99.90;;;;;;5022921;28;20168;-57
2021/07/10 07:44:59;;;;;;;10.43;8.27;;;17.40;99.90;;;;;;5020830;28;20467;-58
2021/07/10 07:47:25;;;;;;;10.07;7.80;;;17.60;99.90;;;;;;5024862;28;20191;-58
2021/07/10 07:49:51;;;;;;;9.13;7.20;;;17.70;99.90;;;;;;5025719;28;20214;-57
2021/07/10 07:52:16;;;;;;;9.00;6.00;;;17.80;99.90;;;;;;5019303;28;20932;-58
2021/07/10 07:54:42;;;;;;;7.73;5.40;;;17.90;99.90;;;;;;5021132;28;20181;-58
2021/07/10 07:57:08;;;;;;;6.50;5.90;;;18.00;99.90;;;;;;5018872;28;20219;-58
2021/07/10 07:59:34;;;;;;;6.80;5.07;;;18.20;99.90;;;;;;5021434;28;20772;-59
2021/07/10 08:02:00;;;;;;;8.57;5.53;;;18.40;99.90;;;;;;5020159;28;20423;-60
2021/07/10 08:04:26;;;;;;;6.90;5.37;;;18.50;99.90;;;;;;5018556;28;20458;-58
2021/07/10 08:06:52;;;;;;;7.63;5.80;;;18.50;99.90;;;;;;5020858;28;20547;-58
2021/07/10 08:09:17;;;;;;;7.00;5.27;;;18.60;99.90;;;;;;5021564;28;20786;-60
2021/07/10 08:11:43;;;;;;;5.93;5.03;;;18.60;99.90;;;;;;5023938;28;20179;-60
2021/07/10 08:14:09;;;;;;;8.20;5.33;;;18.70;99.90;;;;;;5018097;28;20195;-58
2021/07/10 08:16:35;;;;;;;4.70;4.30;;;18.80;99.90;;;;;;5023197;28;20246;-56
2021/07/10 08:19:01;;;;;;;8.00;4.43;;;18.90;99.90;;;;;;5013721;28;20209;-58
2021/07/10 08:21:29;;;;;;;4.70;4.30;;;19.00;99.90;;;;;;5023264;28;20184;-58
2021/07/10 08:23:55;;;;;;;8.13;4.27;;;19.10;99.70;;;;;;5020531;28;20457;-57
2021/07/10 08:26:21;;;;;;;5.17;4.67;;;19.10;97.80;;;;;;5017664;28;20431;-58
2021/07/10 08:28:47;;;;;;;5.00;4.60;;;19.10;98.20;;;;;;5016406;28;20994;-59
2021/07/10 08:31:12;;;;;;;9.70;4.40;;;19.20;98.30;;;;;;5024323;28;20427;-59
2021/07/10 08:33:38;;;;;;;4.53;4.03;;;19.30;97.90;;;;;;5019443;28;20295;-59
2021/07/10 08:36:05;;;;;;;4.63;4.07;;;19.30;96.40;;;;;;5021075;28;20191;-58
2021/07/10 08:38:30;;;;;;;4.23;3.83;;;19.40;95.90;;;;;;5020649;28;20700;-59
2021/07/10 08:40:56;;;;;;;5.63;4.00;;;19.50;96.40;;;;;;5021824;28;20473;-59
2021/07/10 08:43:23;;;;;;;4.50;4.10;;;19.60;96.30;;;;;;5019151;28;20203;-58
2021/07/10 08:45:50;;;;;;;3.50;3.20;;;19.80;96.10;;;;;;5029411;28;20672;-60
2021/07/10 08:48:16;;;;;;;5.03;3.63;;;20.00;95.40;;;;;;5017761;28;21135;-59
2021/07/10 08:50:42;;;;;;;5.13;3.20;;;20.10;94.30;;;;;;5017773;28;20471;-57
2021/07/10 08:53:10;;;;;;;5.10;3.70;;;20.20;94.00;;;;;;5019746;28;20179;-59
2021/07/10 08:55:36;;;;;;;2.70;2.50;;;20.30;92.50;;;;;;5016851;28;20435;-58
2021/07/10 08:58:03;;;;;;;3.00;2.80;;;20.50;92.00;;;;;;5013066;28;20489;-60
2021/07/10 09:00:36;;;;;;;4.57;3.53;;;20.60;89.80;;;;;;5009496;28;20435;-59
2021/07/10 09:03:03;;;;;;;7.10;3.07;;;20.70;88.20;;;;;;5017284;28;20457;-58
2021/07/10 09:05:29;;;;;;;3.10;2.90;;;20.70;74.20;;;;;;5019740;28;20993;-60
2021/07/10 09:08:19;;;;;;;3.50;3.03;;;20.70;71.40;;;;;;5021192;28;20566;-59
2021/07/10 09:10:46;;;;;;;2.97;2.60;;;20.70;73.70;;;;;;5014843;28;20498;-58
2021/07/10 09:13:12;;;;;;;3.97;2.67;;;20.80;74.40;;;;;;5019533;28;20430;-59
2021/07/10 09:15:38;;;;;;;3.10;2.80;;;21.00;75.00;;;;;;5015695;28;20922;-59
2021/07/10 09:18:12;;;;;;;2.97;2.77;;;21.10;72.70;;;;;;5015982;28;20512;-61
2021/07/10 09:20:39;;;;;;;3.50;3.20;;;21.20;72.40;;;;;;5006939;28;20557;-61
2021/07/10 09:23:31;;;;;;;26.10;5.10;;;21.40;74.10;;;;;;5003629;28;20446;-60
2021/07/10 09:26:13;;;;;;;9.60;3.20;;;21.30;66.40;;;;;;5018370;28;20457;-59
2021/07/10 09:28:39;;;;;;;2.73;2.53;;;21.20;67.10;;;;;;5007117;28;20447;-59
2021/07/10 09:31:14;;;;;;;6.07;2.83;;;21.30;67.90;;;;;;5013284;28;20426;-61
2021/07/10 09:33:40;;;;;;;3.47;3.00;;;21.50;67.50;;;;;;5013286;28;20660;-58
2021/07/10 09:36:06;;;;;;;3.00;2.70;;;21.60;69.30;;;;;;5015152;28;20525;-59
2021/07/10 09:38:34;;;;;;;3.47;2.70;;;21.90;66.10;;;;;;5013066;28;20469;-58
2021/07/10 09:41:09;;;;;;;5.80;2.60;;;22.00;64.10;;;;;;5016736;28;20430;-60
2021/07/10 09:43:37;;;;;;;3.87;2.87;;;22.10;65.00;;;;;;5015413;28;20997;-57
2021/07/10 09:46:06;;;;;;;2.70;2.50;;;22.30;64.80;;;;;;5009134;28;20431;-55
2021/07/10 09:48:42;;;;;;;3.93;2.90;;;22.40;62.90;;;;;;5011234;28;20458;-58
2021/07/10 09:51:28;;;;;;;4.93;2.57;;;22.50;62.30;;;;;;5020843;28;20418;-56
2021/07/10 09:53:58;;;;;;;12.77;3.97;;;22.60;62.40;;;;;;5027866;28;20652;-56
2021/07/10 09:56:24;;;;;;;2.80;2.40;;;22.70;60.30;;;;;;5027031;28;20418;-57
2021/07/10 09:58:49;;;;;;;4.30;2.40;;;22.80;60.00;;;;;;5015400;28;20794;-57
2021/07/10 10:01:29;;;;;;;3.40;2.77;;;22.90;59.70;;;;;;5028161;28;20249;-56
2021/07/10 10:03:55;;;;;;;3.20;2.30;;;23.00;59.20;;;;;;5026422;28;20203;-58
2021/07/10 10:06:31;;;;;;;3.23;2.40;;;22.90;56.60;;;;;;5024206;28;20430;-57
2021/07/10 10:09:17;;;;;;;3.30;3.00;;;22.90;56.80;;;;;;5013090;28;20243;-57
2021/07/10 10:11:59;;;;;;;2.80;2.40;;;23.00;57.60;;;;;;5009667;28;20387;-55
2021/07/10 10:14:40;;;;;;;3.00;2.80;;;23.10;57.70;;;;;;5027376;28;20472;-57
2021/07/10 10:17:06;;;;;;;2.77;2.57;;;23.30;57.50;;;;;;5024011;28;20510;-57
2021/07/10 10:19:38;;;;;;;6.63;3.13;;;23.40;57.00;;;;;;5027055;28;20414;-57
2021/07/10 10:22:09;;;;;;;2.30;2.20;;;23.50;57.10;;;;;;5016345;28;20412;-57
2021/07/10 10:24:37;;;;;;;3.40;2.50;;;23.60;56.70;;;;;;5007862;28;20899;-57
2021/07/10 10:27:05;;;;;;;2.73;2.40;;;23.70;58.10;;;;;;5013568;28;20495;-58
2021/07/10 10:29:32;;;;;;;3.20;2.40;;;23.90;57.40;;;;;;5026592;28;20406;-58
2021/07/10 10:31:58;;;;;;;2.93;2.53;;;24.00;56.90;;;;;;5028788;28;20797;-55
2021/07/10 10:34:25;;;;;;;2.43;2.23;;;24.20;56.90;;;;;;5023363;28;20438;-57
2021/07/10 10:36:52;;;;;;;5.07;2.60;;;24.40;56.40;;;;;;5010915;28;20412;-56
2021/07/10 10:39:24;;;;;;;3.60;2.87;;;24.50;52.00;;;;;;5020848;28;21108;-57
2021/07/10 10:42:08;;;;;;;2.40;2.20;;;24.30;51.20;;;;;;5025222;28;20776;-57
2021/07/10 10:44:40;;;;;;;3.03;2.40;;;24.20;52.00;;;;;;5019711;28;20549;-57
2021/07/10 10:47:13;;;;;;;2.27;2.03;;;24.20;53.20;;;;;;5027718;28;20411;-57
2021/07/10 10:49:47;;;;;;;3.83;2.40;;;24.30;51.20;;;;;;5027643;28;20973;-56
2021/07/10 10:52:18;;;;;;;2.20;2.00;;;24.40;51.90;;;;;;5009763;28;20410;-57
2021/07/10 10:54:52;;;;;;;3.00;2.70;;;24.50;52.60;;;;;;5009088;28;20454;-58
2021/07/10 10:57:38;;;;;;;3.50;2.30;;;24.40;50.20;;;;;;5027372;28;20468;-57
2021/07/10 11:00:12;;;;;;;3.30;3.00;;;24.20;51.30;;;;;;5032900;28;20430;-57
2021/07/10 11:02:41;;;;;;;2.77;2.53;;;23.80;52.30;;;;;;5024712;28;20426;-56
2021/07/10 11:05:06;;;;;;;3.10;2.33;;;23.80;52.40;;;;;;5028148;28;20544;-56
2021/07/10 11:07:35;;;;;;;2.60;2.40;;;23.90;53.20;;;;;;5028159;28;20533;-57
2021/07/10 11:10:14;;;;;;;2.77;2.47;;;24.10;52.60;;;;;;5026810;28;20187;-57
2021/07/10 11:12:56;;;;;;;2.63;2.43;;;24.30;53.60;;;;;;5029145;28;20436;-56
2021/07/10 11:15:24;;;;;;;2.73;2.53;;;24.30;53.50;;;;;;5031474;28;20416;-56
2021/07/10 11:17:51;;;;;;;2.90;2.40;;;24.10;53.10;;;;;;5025406;28;20476;-57
2021/07/10 11:20:44;;;;;;;5.60;2.53;;;23.90;54.60;;;;;;5023419;28;20417;-58
2021/07/10 11:23:29;;;;;;;2.60;2.40;;;23.80;55.50;;;;;;5031509;28;20457;-58
2021/07/10 11:26:12;;;;;;;2.87;2.53;;;24.00;55.70;;;;;;5021933;28;20415;-57
2021/07/10 11:29:16;;;;;;;2.83;2.47;;;24.40;54.10;;;;;;5025711;28;20476;-56
2021/07/10 11:31:42;;;;;;;3.03;2.83;;;24.70;52.70;;;;;;5031421;28;20402;-57
2021/07/10 11:34:10;;;;;;;2.13;2.03;;;24.90;52.80;;;;;;5030738;28;20521;-58
2021/07/10 11:36:36;;;;;;;3.07;2.60;;;25.20;54.20;;;;;;5025927;28;20642;-56
2021/07/10 11:39:25;;;;;;;2.90;2.33;;;25.40;53.10;;;;;;5032757;28;20450;-56
2021/07/10 11:42:27;;;;;;;3.47;2.60;;;25.60;51.90;;;;;;5035665;28;20433;-56
2021/07/10 11:45:04;;;;;;;3.77;2.57;;;25.70;52.10;;;;;;5028920;28;20446;-57
2021/07/10 11:47:40;;;;;;;3.37;2.53;;;25.80;52.60;;;;;;5025266;28;20449;-56
2021/07/10 11:50:16;;;;;;;2.87;2.53;;;25.90;52.80;;;;;;5025946;28;20414;-57
2021/07/10 11:52:53;;;;;;;2.20;2.10;;;26.00;52.40;;;;;;5030220;28;21009;-57
2021/07/10 11:55:22;;;;;;;2.50;2.30;;;26.20;52.60;;;;;;5014889;28;20442;-57
2021/07/10 11:57:53;;;;;;;2.40;2.20;;;26.30;52.00;;;;;;5011503;28;20541;-57
2021/07/10 12:00:25;;;;;;;6.10;2.40;;;26.50;51.50;;;;;;5015351;28;20971;-58
2021/07/10 12:02:51;;;;;;;18.43;7.03;;;26.70;51.90;;;;;;5015474;28;20433;-57
2021/07/10 12:05:22;;;;;;;2.30;2.10;;;26.80;51.00;;;;;;5021218;28;20429;-57
2021/07/10 12:07:56;;;;;;;3.80;2.20;;;26.90;50.40;;;;;;5008626;28;20200;-59
2021/07/10 12:10:29;;;;;;;3.33;2.07;;;26.90;49.90;;;;;;5017119;28;20449;-57
2021/07/10 12:12:56;;;;;;;3.43;2.47;;;27.00;49.50;;;;;;5019094;28;20446;-58
2021/07/10 12:15:27;;;;;;;3.13;2.10;;;27.20;48.60;;;;;;5011886;28;20434;-56
2021/07/10 12:17:58;;;;;;;2.50;2.30;;;27.30;49.30;;;;;;5009918;28;21336;-57
2021/07/10 12:20:31;;;;;;;2.97;2.47;;;27.30;48.80;;;;;;5014709;28;20510;-57
2021/07/10 12:23:07;;;;;;;3.53;2.27;;;27.40;49.00;;;;;;5017160;28;20998;-59
2021/07/10 12:25:53;;;;;;;3.13;2.13;;;27.50;49.30;;;;;;5018927;28;20968;-56
2021/07/10 12:28:40;;;;;;;2.50;2.37;;;27.60;49.90;;;;;;5021097;28;20541;-57
2021/07/10 12:31:26;;;;;;;3.27;2.20;;;27.70;47.70;;;;;;5020847;28;20461;-59
2021/07/10 12:34:13;;;;;;;3.37;2.20;;;27.60;49.40;;;;;;5018865;28;20560;-58
2021/07/10 12:36:41;;;;;;;2.90;2.27;;;27.60;49.00;;;;;;5019617;28;20854;-57
2021/07/10 12:39:30;;;;;;;2.80;2.47;;;27.60;49.00;;;;;;5018615;28;21042;-56
2021/07/10 12:42:04;;;;;;;2.53;2.33;;;27.50;48.90;;;;;;5014382;28;20426;-59
2021/07/10 12:44:34;;;;;;;4.13;2.30;;;26.90;45.40;;;;;;5016405;28;20481;-58
2021/07/10 12:47:12;;;;;;;4.70;2.50;;;26.20;45.90;;;;;;5016544;28;20468;-58